sensor_id;sensor_type;location;lat;lon;timestamp;P1;durP1;ratioP1;P2;durP2;ratioP2
9364;SDS011;4722;49.340;9.800;2023-09-19T00:02:02;3.40;;;0.50;;
9364;SDS011;4722;49.340;9.800;2023-09-19T00:04:34;1.88;;;0.50;;
9364;SDS011;4722;49.340;9.800;2023-09-19T00:07:00;2.63;;;0.65;;
9364;SDS011;4722;49.340;9.800;2023-09-19T00:09:27;1.50;;;0.50;;
9364;SDS011;4722;49.340;9.800;2023-09-19T00:11:53;1.05;;;0.50;;
9364;SDS011;4722;49.340;9.800;2023-09-19T00:14:19;0.75;;;0.40;;
9364;SDS011;4722;49.340;9.800;2023-09-19T00:16:49;4.80;;;0.52;;
9364;SDS011;4722;49.340;9.800;2023-09-19T00:19:15;1.25;;;0.55;;
9364;SDS011;4722;49.340;9.800;2023-09-19T00:21:41;1.25;;;0.50;;
9364;SDS011;4722;49.340;9.800;2023-09-19T00:24:08;1.95;;;0.57;;
9364;SDS011;4722;49.340;9.800;2023-09-19T00:26:34;0.55;;;0.30;;
9364;SDS011;4722;49.340;9.800;2023-09-19T00:29:01;0.77;;;0.30;;
9364;SDS011;4722;49.340;9.800;2023-09-19T00:31:33;1.40;;;0.57;;
9364;SDS011;4722;49.340;9.800;2023-09-19T00:33:59;2.30;;;0.43;;
9364;SDS011;4722;49.340;9.800;2023-09-19T00:36:31;4.07;;;0.63;;
9364;SDS011;4722;49.340;9.800;2023-09-19T00:38:58;0.77;;;0.32;;
9364;SDS011;4722;49.340;9.800;2023-09-19T00:41:24;1.65;;;0.55;;
9364;SDS011;4722;49.340;9.800;2023-09-19T00:43:51;2.17;;;0.32;;
9364;SDS011;4722;49.340;9.800;2023-09-19T00:46:17;2.85;;;0.63;;
9364;SDS011;4722;49.340;9.800;2023-09-19T00:48:43;1.45;;;0.57;;
9364;SDS011;4722;49.340;9.800;2023-09-19T00:51:09;2.47;;;0.50;;
9364;SDS011;4722;49.340;9.800;2023-09-19T00:53:35;1.05;;;0.30;;
9364;SDS011;4722;49.340;9.800;2023-09-19T00:56:03;5.50;;;0.75;;
9364;SDS011;4722;49.340;9.800;2023-09-19T00:58:33;0.68;;;0.50;;
9364;SDS011;4722;49.340;9.800;2023-09-19T01:01:00;1.52;;;0.30;;
9364;SDS011;4722;49.340;9.800;2023-09-19T01:03:27;1.30;;;0.40;;
9364;SDS011;4722;49.340;9.800;2023-09-19T01:05:53;0.73;;;0.50;;
9364;SDS011;4722;49.340;9.800;2023-09-19T01:08:19;1.38;;;0.40;;
9364;SDS011;4722;49.340;9.800;2023-09-19T01:22:00;1.42;;;0.35;;
9364;SDS011;4722;49.340;9.800;2023-09-19T01:30:35;1.42;;;0.32;;
9364;SDS011;4722;49.340;9.800;2023-09-19T01:35:31;1.80;;;0.40;;
9364;SDS011;4722;49.340;9.800;2023-09-19T01:37:59;2.95;;;0.50;;
9364;SDS011;4722;49.340;9.800;2023-09-19T01:40:25;1.77;;;0.32;;
9364;SDS011;4722;49.340;9.800;2023-09-19T01:42:59;1.02;;;0.35;;
9364;SDS011;4722;49.340;9.800;2023-09-19T01:48:43;0.98;;;0.40;;
9364;SDS011;4722;49.340;9.800;2023-09-19T01:51:18;1.45;;;0.30;;
9364;SDS011;4722;49.340;9.800;2023-09-19T01:54:01;7.32;;;0.52;;
9364;SDS011;4722;49.340;9.800;2023-09-19T01:58:57;0.65;;;0.38;;
9364;SDS011;4722;49.340;9.800;2023-09-19T02:01:28;0.70;;;0.30;;
9364;SDS011;4722;49.340;9.800;2023-09-19T02:03:54;2.97;;;0.30;;
9364;SDS011;4722;49.340;9.800;2023-09-19T02:06:21;3.08;;;0.43;;
9364;SDS011;4722;49.340;9.800;2023-09-19T02:08:50;5.78;;;0.70;;
9364;SDS011;4722;49.340;9.800;2023-09-19T02:11:16;0.95;;;0.35;;
9364;SDS011;4722;49.340;9.800;2023-09-19T02:13:42;1.20;;;0.50;;
9364;SDS011;4722;49.340;9.800;2023-09-19T02:16:09;0.95;;;0.30;;
9364;SDS011;4722;49.340;9.800;2023-09-19T02:18:35;0.93;;;0.40;;
9364;SDS011;4722;49.340;9.800;2023-09-19T02:21:01;1.15;;;0.32;;
9364;SDS011;4722;49.340;9.800;2023-09-19T02:23:29;1.10;;;0.47;;
9364;SDS011;4722;49.340;9.800;2023-09-19T02:25:55;1.90;;;0.40;;
9364;SDS011;4722;49.340;9.800;2023-09-19T02:28:25;2.70;;;0.35;;
9364;SDS011;4722;49.340;9.800;2023-09-19T02:30:55;3.63;;;0.40;;
9364;SDS011;4722;49.340;9.800;2023-09-19T02:33:21;1.77;;;0.40;;
9364;SDS011;4722;49.340;9.800;2023-09-19T02:35:47;5.07;;;0.70;;
9364;SDS011;4722;49.340;9.800;2023-09-19T02:38:13;2.78;;;0.57;;
9364;SDS011;4722;49.340;9.800;2023-09-19T02:40:45;0.73;;;0.45;;
9364;SDS011;4722;49.340;9.800;2023-09-19T02:43:11;2.05;;;0.60;;
9364;SDS011;4722;49.340;9.800;2023-09-19T02:45:37;6.07;;;0.60;;
9364;SDS011;4722;49.340;9.800;2023-09-19T02:48:04;4.18;;;0.60;;
9364;SDS011;4722;49.340;9.800;2023-09-19T02:50:29;1.85;;;0.63;;
9364;SDS011;4722;49.340;9.800;2023-09-19T02:52:55;0.82;;;0.38;;
9364;SDS011;4722;49.340;9.800;2023-09-19T02:55:21;2.45;;;0.28;;
9364;SDS011;4722;49.340;9.800;2023-09-19T02:57:48;2.47;;;0.50;;
9364;SDS011;4722;49.340;9.800;2023-09-19T03:00:15;1.50;;;0.45;;
9364;SDS011;4722;49.340;9.800;2023-09-19T03:02:41;0.82;;;0.50;;
9364;SDS011;4722;49.340;9.800;2023-09-19T03:05:08;3.05;;;0.50;;
9364;SDS011;4722;49.340;9.800;2023-09-19T03:07:36;2.50;;;1.13;;
9364;SDS011;4722;49.340;9.800;2023-09-19T03:10:03;1.58;;;0.63;;
9364;SDS011;4722;49.340;9.800;2023-09-19T03:12:30;0.55;;;0.32;;
9364;SDS011;4722;49.340;9.800;2023-09-19T03:14:56;1.65;;;0.50;;
9364;SDS011;4722;49.340;9.800;2023-09-19T03:17:24;1.20;;;0.40;;
9364;SDS011;4722;49.340;9.800;2023-09-19T03:19:50;1.73;;;0.60;;
9364;SDS011;4722;49.340;9.800;2023-09-19T03:22:16;2.42;;;0.77;;
9364;SDS011;4722;49.340;9.800;2023-09-19T03:24:43;0.50;;;0.40;;
9364;SDS011;4722;49.340;9.800;2023-09-19T03:27:09;0.57;;;0.35;;
9364;SDS011;4722;49.340;9.800;2023-09-19T03:29:35;4.65;;;0.50;;
9364;SDS011;4722;49.340;9.800;2023-09-19T03:32:01;1.92;;;0.70;;
9364;SDS011;4722;49.340;9.800;2023-09-19T03:34:28;1.27;;;0.30;;
9364;SDS011;4722;49.340;9.800;2023-09-19T03:36:54;1.45;;;0.77;;
9364;SDS011;4722;49.340;9.800;2023-09-19T03:39:20;1.92;;;0.32;;
9364;SDS011;4722;49.340;9.800;2023-09-19T03:41:46;2.22;;;0.73;;
9364;SDS011;4722;49.340;9.800;2023-09-19T03:44:12;0.73;;;0.50;;
9364;SDS011;4722;49.340;9.800;2023-09-19T03:46:37;2.03;;;0.50;;
9364;SDS011;4722;49.340;9.800;2023-09-19T03:49:03;1.73;;;0.20;;
9364;SDS011;4722;49.340;9.800;2023-09-19T03:51:29;1.42;;;0.60;;
9364;SDS011;4722;49.340;9.800;2023-09-19T03:53:55;0.80;;;0.40;;
9364;SDS011;4722;49.340;9.800;2023-09-19T03:56:21;3.22;;;0.55;;
9364;SDS011;4722;49.340;9.800;2023-09-19T03:58:47;0.80;;;0.60;;
9364;SDS011;4722;49.340;9.800;2023-09-19T04:01:13;4.45;;;0.47;;
9364;SDS011;4722;49.340;9.800;2023-09-19T04:03:41;1.23;;;0.70;;
9364;SDS011;4722;49.340;9.800;2023-09-19T04:06:12;1.02;;;0.30;;
9364;SDS011;4722;49.340;9.800;2023-09-19T04:08:41;2.17;;;0.30;;
9364;SDS011;4722;49.340;9.800;2023-09-19T04:11:08;1.65;;;0.40;;
9364;SDS011;4722;49.340;9.800;2023-09-19T04:13:34;1.92;;;0.40;;
9364;SDS011;4722;49.340;9.800;2023-09-19T04:16:00;3.63;;;0.82;;
9364;SDS011;4722;49.340;9.800;2023-09-19T04:18:25;1.95;;;0.40;;
9364;SDS011;4722;49.340;9.800;2023-09-19T04:20:52;2.03;;;0.50;;
9364;SDS011;4722;49.340;9.800;2023-09-19T04:23:18;0.57;;;0.38;;
9364;SDS011;4722;49.340;9.800;2023-09-19T04:25:45;4.32;;;0.75;;
9364;SDS011;4722;49.340;9.800;2023-09-19T04:28:11;3.20;;;0.63;;
9364;SDS011;4722;49.340;9.800;2023-09-19T04:30:37;2.78;;;0.57;;
9364;SDS011;4722;49.340;9.800;2023-09-19T04:33:06;1.50;;;0.70;;
9364;SDS011;4722;49.340;9.800;2023-09-19T04:35:32;1.15;;;0.70;;
9364;SDS011;4722;49.340;9.800;2023-09-19T04:37:59;1.52;;;0.60;;
9364;SDS011;4722;49.340;9.800;2023-09-19T04:40:25;3.05;;;0.60;;
9364;SDS011;4722;49.340;9.800;2023-09-19T04:42:57;4.18;;;0.90;;
9364;SDS011;4722;49.340;9.800;2023-09-19T04:45:24;5.78;;;0.90;;
9364;SDS011;4722;49.340;9.800;2023-09-19T04:47:49;2.67;;;0.80;;
9364;SDS011;4722;49.340;9.800;2023-09-19T04:50:16;1.33;;;0.70;;
9364;SDS011;4722;49.340;9.800;2023-09-19T04:52:43;2.72;;;0.70;;
9364;SDS011;4722;49.340;9.800;2023-09-19T04:55:10;3.03;;;1.15;;
9364;SDS011;4722;49.340;9.800;2023-09-19T04:57:38;2.88;;;1.08;;
9364;SDS011;4722;49.340;9.800;2023-09-19T05:00:04;1.42;;;0.80;;
9364;SDS011;4722;49.340;9.800;2023-09-19T05:02:37;5.00;;;1.30;;
9364;SDS011;4722;49.340;9.800;2023-09-19T05:05:03;1.80;;;0.82;;
9364;SDS011;4722;49.340;9.800;2023-09-19T05:07:30;2.00;;;1.10;;
9364;SDS011;4722;49.340;9.800;2023-09-19T05:09:56;6.25;;;0.95;;
9364;SDS011;4722;49.340;9.800;2023-09-19T05:12:22;2.67;;;1.50;;
9364;SDS011;4722;49.340;9.800;2023-09-19T05:14:48;2.83;;;1.20;;
9364;SDS011;4722;49.340;9.800;2023-09-19T05:17:13;4.10;;;1.67;;
9364;SDS011;4722;49.340;9.800;2023-09-19T05:19:41;2.15;;;0.85;;
9364;SDS011;4722;49.340;9.800;2023-09-19T05:22:08;1.63;;;0.93;;
9364;SDS011;4722;49.340;9.800;2023-09-19T05:24:33;2.22;;;1.25;;
9364;SDS011;4722;49.340;9.800;2023-09-19T05:26:59;2.13;;;1.20;;
9364;SDS011;4722;49.340;9.800;2023-09-19T05:29:26;3.20;;;1.30;;
9364;SDS011;4722;49.340;9.800;2023-09-19T05:31:51;5.50;;;1.77;;
9364;SDS011;4722;49.340;9.800;2023-09-19T05:34:19;1.73;;;1.40;;
9364;SDS011;4722;49.340;9.800;2023-09-19T05:36:45;4.95;;;1.25;;
9364;SDS011;4722;49.340;9.800;2023-09-19T05:39:13;6.47;;;2.38;;
9364;SDS011;4722;49.340;9.800;2023-09-19T05:41:39;1.85;;;1.10;;
9364;SDS011;4722;49.340;9.800;2023-09-19T05:44:05;3.75;;;2.40;;
9364;SDS011;4722;49.340;9.800;2023-09-19T05:46:32;2.38;;;1.58;;
9364;SDS011;4722;49.340;9.800;2023-09-19T05:48:57;3.92;;;1.38;;
9364;SDS011;4722;49.340;9.800;2023-09-19T05:51:23;2.78;;;1.75;;
9364;SDS011;4722;49.340;9.800;2023-09-19T05:53:50;8.45;;;1.40;;
9364;SDS011;4722;49.340;9.800;2023-09-19T05:56:17;3.10;;;1.70;;
9364;SDS011;4722;49.340;9.800;2023-09-19T05:58:44;3.97;;;1.67;;
9364;SDS011;4722;49.340;9.800;2023-09-19T06:01:10;3.10;;;1.90;;
9364;SDS011;4722;49.340;9.800;2023-09-19T06:03:35;4.88;;;1.42;;
9364;SDS011;4722;49.340;9.800;2023-09-19T06:06:01;4.10;;;1.63;;
9364;SDS011;4722;49.340;9.800;2023-09-19T06:08:27;3.17;;;1.50;;
9364;SDS011;4722;49.340;9.800;2023-09-19T06:10:53;5.18;;;1.80;;
9364;SDS011;4722;49.340;9.800;2023-09-19T06:13:19;4.68;;;2.63;;
9364;SDS011;4722;49.340;9.800;2023-09-19T06:15:46;3.38;;;1.25;;
9364;SDS011;4722;49.340;9.800;2023-09-19T06:18:12;2.33;;;0.93;;
9364;SDS011;4722;49.340;9.800;2023-09-19T06:20:45;6.80;;;1.85;;
9364;SDS011;4722;49.340;9.800;2023-09-19T06:23:12;5.47;;;2.00;;
9364;SDS011;4722;49.340;9.800;2023-09-19T06:25:38;2.88;;;1.25;;
9364;SDS011;4722;49.340;9.800;2023-09-19T06:28:05;3.42;;;1.52;;
9364;SDS011;4722;49.340;9.800;2023-09-19T06:30:33;6.93;;;1.33;;
9364;SDS011;4722;49.340;9.800;2023-09-19T06:33:00;2.83;;;1.33;;
9364;SDS011;4722;49.340;9.800;2023-09-19T06:35:26;2.50;;;0.90;;
9364;SDS011;4722;49.340;9.800;2023-09-19T06:37:52;1.58;;;0.88;;
9364;SDS011;4722;49.340;9.800;2023-09-19T06:40:18;1.73;;;0.93;;
9364;SDS011;4722;49.340;9.800;2023-09-19T06:42:49;4.53;;;1.80;;
9364;SDS011;4722;49.340;9.800;2023-09-19T06:45:16;4.55;;;1.20;;
9364;SDS011;4722;49.340;9.800;2023-09-19T06:47:47;3.15;;;1.33;;
9364;SDS011;4722;49.340;9.800;2023-09-19T06:50:25;2.10;;;1.10;;
9364;SDS011;4722;49.340;9.800;2023-09-19T06:52:52;2.25;;;0.88;;
9364;SDS011;4722;49.340;9.800;2023-09-19T06:55:20;5.63;;;0.93;;
9364;SDS011;4722;49.340;9.800;2023-09-19T06:57:48;1.77;;;1.02;;
9364;SDS011;4722;49.340;9.800;2023-09-19T07:00:15;1.00;;;0.77;;
9364;SDS011;4722;49.340;9.800;2023-09-19T07:02:43;1.85;;;0.65;;
9364;SDS011;4722;49.340;9.800;2023-09-19T07:05:09;1.98;;;0.93;;
9364;SDS011;4722;49.340;9.800;2023-09-19T07:07:35;1.52;;;0.75;;
9364;SDS011;4722;49.340;9.800;2023-09-19T07:10:02;1.25;;;0.73;;
9364;SDS011;4722;49.340;9.800;2023-09-19T07:12:30;1.55;;;0.47;;
9364;SDS011;4722;49.340;9.800;2023-09-19T07:14:56;2.78;;;1.17;;
9364;SDS011;4722;49.340;9.800;2023-09-19T07:17:22;2.08;;;0.60;;
9364;SDS011;4722;49.340;9.800;2023-09-19T07:19:49;0.93;;;0.50;;
9364;SDS011;4722;49.340;9.800;2023-09-19T07:22:15;5.07;;;1.25;;
9364;SDS011;4722;49.340;9.800;2023-09-19T07:24:41;6.10;;;0.90;;
9364;SDS011;4722;49.340;9.800;2023-09-19T07:27:07;11.43;;;0.80;;
9364;SDS011;4722;49.340;9.800;2023-09-19T07:29:33;1.80;;;0.52;;
9364;SDS011;4722;49.340;9.800;2023-09-19T07:31:59;4.05;;;1.20;;
9364;SDS011;4722;49.340;9.800;2023-09-19T07:34:25;2.95;;;1.15;;
9364;SDS011;4722;49.340;9.800;2023-09-19T07:36:51;7.03;;;1.02;;
9364;SDS011;4722;49.340;9.800;2023-09-19T07:39:17;3.42;;;0.85;;
9364;SDS011;4722;49.340;9.800;2023-09-19T07:41:43;2.88;;;0.82;;
9364;SDS011;4722;49.340;9.800;2023-09-19T07:44:09;2.40;;;1.30;;
9364;SDS011;4722;49.340;9.800;2023-09-19T07:46:35;1.75;;;0.82;;
9364;SDS011;4722;49.340;9.800;2023-09-19T07:49:01;2.85;;;0.90;;
9364;SDS011;4722;49.340;9.800;2023-09-19T07:51:27;2.33;;;0.75;;
9364;SDS011;4722;49.340;9.800;2023-09-19T07:53:54;1.30;;;0.80;;
9364;SDS011;4722;49.340;9.800;2023-09-19T07:56:20;3.60;;;0.60;;
9364;SDS011;4722;49.340;9.800;2023-09-19T07:58:47;2.67;;;0.77;;
9364;SDS011;4722;49.340;9.800;2023-09-19T08:01:13;3.33;;;0.77;;
9364;SDS011;4722;49.340;9.800;2023-09-19T08:03:41;3.45;;;0.50;;
9364;SDS011;4722;49.340;9.800;2023-09-19T08:06:08;3.40;;;0.93;;
9364;SDS011;4722;49.340;9.800;2023-09-19T08:08:34;5.78;;;2.05;;
9364;SDS011;4722;49.340;9.800;2023-09-19T08:11:02;5.43;;;0.80;;
9364;SDS011;4722;49.340;9.800;2023-09-19T08:13:36;3.75;;;1.05;;
9364;SDS011;4722;49.340;9.800;2023-09-19T08:16:03;4.05;;;0.80;;
9364;SDS011;4722;49.340;9.800;2023-09-19T08:18:29;3.15;;;1.27;;
9364;SDS011;4722;49.340;9.800;2023-09-19T08:20:55;1.38;;;0.70;;
9364;SDS011;4722;49.340;9.800;2023-09-19T08:23:23;1.63;;;0.73;;
9364;SDS011;4722;49.340;9.800;2023-09-19T08:25:49;3.03;;;0.77;;
9364;SDS011;4722;49.340;9.800;2023-09-19T08:28:15;2.70;;;1.02;;
9364;SDS011;4722;49.340;9.800;2023-09-19T08:30:47;3.05;;;1.05;;
9364;SDS011;4722;49.340;9.800;2023-09-19T08:33:13;3.92;;;1.20;;
9364;SDS011;4722;49.340;9.800;2023-09-19T08:35:40;4.07;;;1.10;;
9364;SDS011;4722;49.340;9.800;2023-09-19T08:38:08;3.53;;;1.52;;
9364;SDS011;4722;49.340;9.800;2023-09-19T08:40:38;2.45;;;1.08;;
9364;SDS011;4722;49.340;9.800;2023-09-19T08:43:06;5.00;;;1.02;;
9364;SDS011;4722;49.340;9.800;2023-09-19T08:45:33;1.92;;;1.20;;
9364;SDS011;4722;49.340;9.800;2023-09-19T08:48:20;2.17;;;1.10;;
9364;SDS011;4722;49.340;9.800;2023-09-19T08:50:57;4.68;;;0.80;;
9364;SDS011;4722;49.340;9.800;2023-09-19T08:55:57;2.30;;;0.90;;
9364;SDS011;4722;49.340;9.800;2023-09-19T08:58:27;1.33;;;0.88;;
9364;SDS011;4722;49.340;9.800;2023-09-19T09:01:00;2.70;;;1.05;;
9364;SDS011;4722;49.340;9.800;2023-09-19T09:03:26;0.52;;;0.32;;
9364;SDS011;4722;49.340;9.800;2023-09-19T09:05:53;5.20;;;0.82;;
9364;SDS011;4722;49.340;9.800;2023-09-19T09:08:20;2.83;;;0.60;;
9364;SDS011;4722;49.340;9.800;2023-09-19T09:10:46;1.15;;;0.57;;
9364;SDS011;4722;49.340;9.800;2023-09-19T09:13:12;1.00;;;0.60;;
9364;SDS011;4722;49.340;9.800;2023-09-19T09:15:40;3.35;;;0.40;;
9364;SDS011;4722;49.340;9.800;2023-09-19T09:18:06;1.00;;;0.50;;
9364;SDS011;4722;49.340;9.800;2023-09-19T09:20:32;3.80;;;0.40;;
9364;SDS011;4722;49.340;9.800;2023-09-19T09:22:58;1.00;;;0.70;;
9364;SDS011;4722;49.340;9.800;2023-09-19T09:25:46;1.27;;;0.50;;
9364;SDS011;4722;49.340;9.800;2023-09-19T09:28:22;1.33;;;0.30;;
9364;SDS011;4722;49.340;9.800;2023-09-19T09:30:48;4.40;;;0.90;;
9364;SDS011;4722;49.340;9.800;2023-09-19T09:33:15;1.35;;;0.50;;
9364;SDS011;4722;49.340;9.800;2023-09-19T09:35:51;2.15;;;0.50;;
9364;SDS011;4722;49.340;9.800;2023-09-19T09:38:23;0.77;;;0.43;;
9364;SDS011;4722;49.340;9.800;2023-09-19T09:40:54;3.22;;;0.50;;
9364;SDS011;4722;49.340;9.800;2023-09-19T09:43:30;0.50;;;0.20;;
9364;SDS011;4722;49.340;9.800;2023-09-19T09:48:55;1.55;;;0.38;;
9364;SDS011;4722;49.340;9.800;2023-09-19T09:51:43;1.92;;;0.40;;
9364;SDS011;4722;49.340;9.800;2023-09-19T09:54:14;2.03;;;0.35;;
9364;SDS011;4722;49.340;9.800;2023-09-19T09:56:51;2.42;;;0.47;;
9364;SDS011;4722;49.340;9.800;2023-09-19T09:59:25;1.60;;;0.40;;
9364;SDS011;4722;49.340;9.800;2023-09-19T10:02:11;3.22;;;0.75;;
9364;SDS011;4722;49.340;9.800;2023-09-19T10:04:50;2.03;;;0.52;;
9364;SDS011;4722;49.340;9.800;2023-09-19T10:07:27;1.00;;;0.45;;
9364;SDS011;4722;49.340;9.800;2023-09-19T10:09:58;2.75;;;0.47;;
9364;SDS011;4722;49.340;9.800;2023-09-19T10:12:44;1.00;;;0.30;;
9364;SDS011;4722;49.340;9.800;2023-09-19T10:15:13;3.38;;;0.45;;
9364;SDS011;4722;49.340;9.800;2023-09-19T10:17:40;5.18;;;0.50;;
9364;SDS011;4722;49.340;9.800;2023-09-19T10:20:09;5.30;;;0.50;;
9364;SDS011;4722;49.340;9.800;2023-09-19T10:22:59;1.55;;;0.52;;
9364;SDS011;4722;49.340;9.800;2023-09-19T10:25:25;2.35;;;0.32;;
9364;SDS011;4722;49.340;9.800;2023-09-19T10:27:53;1.85;;;0.55;;
9364;SDS011;4722;49.340;9.800;2023-09-19T10:30:20;1.30;;;0.55;;
9364;SDS011;4722;49.340;9.800;2023-09-19T10:32:47;0.68;;;0.30;;
9364;SDS011;4722;49.340;9.800;2023-09-19T10:35:26;0.85;;;0.30;;
9364;SDS011;4722;49.340;9.800;2023-09-19T10:37:52;2.58;;;0.35;;
9364;SDS011;4722;49.340;9.800;2023-09-19T10:40:21;5.05;;;0.52;;
9364;SDS011;4722;49.340;9.800;2023-09-19T10:42:55;1.02;;;0.40;;
9364;SDS011;4722;49.340;9.800;2023-09-19T10:45:29;1.35;;;0.52;;
9364;SDS011;4722;49.340;9.800;2023-09-19T10:48:00;2.78;;;0.40;;
9364;SDS011;4722;49.340;9.800;2023-09-19T10:50:51;2.67;;;0.47;;
9364;SDS011;4722;49.340;9.800;2023-09-19T10:53:17;4.13;;;0.60;;
9364;SDS011;4722;49.340;9.800;2023-09-19T10:55:49;2.63;;;0.52;;
9364;SDS011;4722;49.340;9.800;2023-09-19T10:58:26;2.53;;;0.57;;
9364;SDS011;4722;49.340;9.800;2023-09-19T11:00:54;1.50;;;0.30;;
9364;SDS011;4722;49.340;9.800;2023-09-19T11:03:42;0.85;;;0.32;;
9364;SDS011;4722;49.340;9.800;2023-09-19T11:11:56;0.98;;;0.28;;
9364;SDS011;4722;49.340;9.800;2023-09-19T11:20:14;7.13;;;0.57;;
9364;SDS011;4722;49.340;9.800;2023-09-19T11:30:58;3.40;;;0.57;;
9364;SDS011;4722;49.340;9.800;2023-09-19T11:33:44;3.15;;;0.70;;
9364;SDS011;4722;49.340;9.800;2023-09-19T11:36:12;6.65;;;2.08;;
9364;SDS011;4722;49.340;9.800;2023-09-19T11:43:49;1.80;;;1.00;;
9364;SDS011;4722;49.340;9.800;2023-09-19T11:46:16;2.10;;;0.65;;
9364;SDS011;4722;49.340;9.800;2023-09-19T11:48:47;0.52;;;0.20;;
9364;SDS011;4722;49.340;9.800;2023-09-19T11:51:15;0.65;;;0.30;;
9364;SDS011;4722;49.340;9.800;2023-09-19T11:53:51;0.85;;;0.20;;
9364;SDS011;4722;49.340;9.800;2023-09-19T11:56:18;1.60;;;0.32;;
9364;SDS011;4722;49.340;9.800;2023-09-19T11:58:52;2.38;;;0.40;;
9364;SDS011;4722;49.340;9.800;2023-09-19T12:01:23;1.30;;;0.20;;
9364;SDS011;4722;49.340;9.800;2023-09-19T12:03:54;2.20;;;0.38;;
9364;SDS011;4722;49.340;9.800;2023-09-19T12:06:22;2.47;;;0.82;;
9364;SDS011;4722;49.340;9.800;2023-09-19T12:08:49;3.67;;;0.45;;
9364;SDS011;4722;49.340;9.800;2023-09-19T12:11:16;1.33;;;0.40;;
9364;SDS011;4722;49.340;9.800;2023-09-19T12:13:46;1.15;;;0.28;;
9364;SDS011;4722;49.340;9.800;2023-09-19T12:16:14;0.93;;;0.38;;
9364;SDS011;4722;49.340;9.800;2023-09-19T12:18:42;2.15;;;0.30;;
9364;SDS011;4722;49.340;9.800;2023-09-19T12:21:20;1.73;;;0.32;;
9364;SDS011;4722;49.340;9.800;2023-09-19T12:24:05;0.43;;;0.15;;
9364;SDS011;4722;49.340;9.800;2023-09-19T12:26:38;1.27;;;0.45;;
9364;SDS011;4722;49.340;9.800;2023-09-19T12:29:15;1.05;;;0.35;;
9364;SDS011;4722;49.340;9.800;2023-09-19T12:34:19;0.85;;;0.28;;
9364;SDS011;4722;49.340;9.800;2023-09-19T12:37:03;0.90;;;0.32;;
9364;SDS011;4722;49.340;9.800;2023-09-19T12:39:52;1.10;;;0.25;;
9364;SDS011;4722;49.340;9.800;2023-09-19T12:42:39;2.97;;;0.60;;
9364;SDS011;4722;49.340;9.800;2023-09-19T12:45:06;4.15;;;1.70;;
9364;SDS011;4722;49.340;9.800;2023-09-19T12:47:34;1.65;;;0.60;;
9364;SDS011;4722;49.340;9.800;2023-09-19T12:50:13;1.35;;;0.47;;
9364;SDS011;4722;49.340;9.800;2023-09-19T12:55:46;1.85;;;0.40;;
9364;SDS011;4722;49.340;9.800;2023-09-19T12:58:08;4.97;;;0.52;;
9364;SDS011;4722;49.340;9.800;2023-09-19T13:00:40;1.63;;;0.50;;
9364;SDS011;4722;49.340;9.800;2023-09-19T13:05:54;1.40;;;0.32;;
9364;SDS011;4722;49.340;9.800;2023-09-19T13:08:32;1.85;;;0.50;;
9364;SDS011;4722;49.340;9.800;2023-09-19T13:11:07;2.20;;;0.30;;
9364;SDS011;4722;49.340;9.800;2023-09-19T13:13:36;3.25;;;0.20;;
9364;SDS011;4722;49.340;9.800;2023-09-19T13:16:03;1.10;;;0.30;;
9364;SDS011;4722;49.340;9.800;2023-09-19T13:18:42;0.75;;;0.40;;
9364;SDS011;4722;49.340;9.800;2023-09-19T13:21:13;1.75;;;0.50;;
9364;SDS011;4722;49.340;9.800;2023-09-19T13:23:52;2.08;;;0.77;;
9364;SDS011;4722;49.340;9.800;2023-09-19T13:26:24;1.95;;;0.57;;
9364;SDS011;4722;49.340;9.800;2023-09-19T13:28:50;0.30;;;0.10;;
9364;SDS011;4722;49.340;9.800;2023-09-19T13:31:16;1.23;;;0.38;;
9364;SDS011;4722;49.340;9.800;2023-09-19T13:33:42;12.43;;;0.90;;
9364;SDS011;4722;49.340;9.800;2023-09-19T13:36:10;3.25;;;0.20;;
9364;SDS011;4722;49.340;9.800;2023-09-19T13:38:37;1.65;;;0.35;;
9364;SDS011;4722;49.340;9.800;2023-09-19T13:41:03;3.83;;;0.57;;
9364;SDS011;4722;49.340;9.800;2023-09-19T13:43:29;1.10;;;0.22;;
9364;SDS011;4722;49.340;9.800;2023-09-19T13:45:54;2.85;;;0.40;;
9364;SDS011;4722;49.340;9.800;2023-09-19T13:48:22;0.80;;;0.38;;
9364;SDS011;4722;49.340;9.800;2023-09-19T13:50:49;2.97;;;0.30;;
9364;SDS011;4722;49.340;9.800;2023-09-19T13:53:15;3.17;;;0.63;;
9364;SDS011;4722;49.340;9.800;2023-09-19T13:55:42;0.73;;;0.40;;
9364;SDS011;4722;49.340;9.800;2023-09-19T13:58:08;0.82;;;0.30;;
9364;SDS011;4722;49.340;9.800;2023-09-19T14:00:35;0.80;;;0.22;;
9364;SDS011;4722;49.340;9.800;2023-09-19T14:03:03;3.85;;;0.47;;
9364;SDS011;4722;49.340;9.800;2023-09-19T14:05:29;3.65;;;0.55;;
9364;SDS011;4722;49.340;9.800;2023-09-19T14:07:56;4.07;;;0.50;;
9364;SDS011;4722;49.340;9.800;2023-09-19T14:10:24;7.18;;;0.70;;
9364;SDS011;4722;49.340;9.800;2023-09-19T14:12:52;1.70;;;0.63;;
9364;SDS011;4722;49.340;9.800;2023-09-19T14:15:18;6.07;;;0.40;;
9364;SDS011;4722;49.340;9.800;2023-09-19T14:17:44;0.45;;;0.20;;
9364;SDS011;4722;49.340;9.800;2023-09-19T14:20:10;1.65;;;0.40;;
9364;SDS011;4722;49.340;9.800;2023-09-19T14:22:36;0.68;;;0.28;;
9364;SDS011;4722;49.340;9.800;2023-09-19T14:25:03;2.28;;;0.15;;
9364;SDS011;4722;49.340;9.800;2023-09-19T14:27:29;3.08;;;0.43;;
9364;SDS011;4722;49.340;9.800;2023-09-19T14:29:55;2.17;;;0.30;;
9364;SDS011;4722;49.340;9.800;2023-09-19T14:32:24;3.78;;;0.40;;
9364;SDS011;4722;49.340;9.800;2023-09-19T14:34:49;1.55;;;0.30;;
9364;SDS011;4722;49.340;9.800;2023-09-19T14:37:15;1.17;;;0.40;;
9364;SDS011;4722;49.340;9.800;2023-09-19T14:39:42;1.52;;;0.40;;
9364;SDS011;4722;49.340;9.800;2023-09-19T14:42:10;4.95;;;0.38;;
9364;SDS011;4722;49.340;9.800;2023-09-19T14:44:37;1.77;;;0.30;;
9364;SDS011;4722;49.340;9.800;2023-09-19T14:47:03;0.73;;;0.15;;
9364;SDS011;4722;49.340;9.800;2023-09-19T14:49:32;1.33;;;0.30;;
9364;SDS011;4722;49.340;9.800;2023-09-19T14:51:59;2.40;;;0.63;;
9364;SDS011;4722;49.340;9.800;2023-09-19T14:54:28;0.52;;;0.35;;
9364;SDS011;4722;49.340;9.800;2023-09-19T14:56:55;4.13;;;0.30;;
9364;SDS011;4722;49.340;9.800;2023-09-19T14:59:29;0.75;;;0.20;;
9364;SDS011;4722;49.340;9.800;2023-09-19T15:01:56;0.70;;;0.30;;
9364;SDS011;4722;49.340;9.800;2023-09-19T15:04:22;1.13;;;0.40;;
9364;SDS011;4722;49.340;9.800;2023-09-19T15:06:49;0.88;;;0.20;;
9364;SDS011;4722;49.340;9.800;2023-09-19T15:09:16;0.80;;;0.30;;
9364;SDS011;4722;49.340;9.800;2023-09-19T15:11:44;1.35;;;0.40;;
9364;SDS011;4722;49.340;9.800;2023-09-19T15:14:09;0.57;;;0.22;;
9364;SDS011;4722;49.340;9.800;2023-09-19T15:16:35;1.63;;;0.40;;
9364;SDS011;4722;49.340;9.800;2023-09-19T15:19:01;0.70;;;0.30;;
9364;SDS011;4722;49.340;9.800;2023-09-19T15:21:27;0.68;;;0.20;;
9364;SDS011;4722;49.340;9.800;2023-09-19T15:23:53;1.55;;;0.30;;
9364;SDS011;4722;49.340;9.800;2023-09-19T15:26:19;2.53;;;0.45;;
9364;SDS011;4722;49.340;9.800;2023-09-19T15:28:46;0.73;;;0.25;;
9364;SDS011;4722;49.340;9.800;2023-09-19T15:31:13;2.47;;;0.38;;
9364;SDS011;4722;49.340;9.800;2023-09-19T15:33:39;1.20;;;0.38;;
9364;SDS011;4722;49.340;9.800;2023-09-19T15:36:10;1.25;;;0.40;;
9364;SDS011;4722;49.340;9.800;2023-09-19T15:38:58;0.75;;;0.30;;
9364;SDS011;4722;49.340;9.800;2023-09-19T15:41:27;1.40;;;0.30;;
9364;SDS011;4722;49.340;9.800;2023-09-19T15:43:55;1.92;;;0.40;;
9364;SDS011;4722;49.340;9.800;2023-09-19T15:46:21;2.30;;;0.40;;
9364;SDS011;4722;49.340;9.800;2023-09-19T15:48:47;1.00;;;0.20;;
9364;SDS011;4722;49.340;9.800;2023-09-19T15:51:13;1.13;;;0.30;;
9364;SDS011;4722;49.340;9.800;2023-09-19T15:53:43;0.30;;;0.20;;
9364;SDS011;4722;49.340;9.800;2023-09-19T15:56:17;0.95;;;0.30;;
9364;SDS011;4722;49.340;9.800;2023-09-19T15:58:43;3.47;;;0.32;;
9364;SDS011;4722;49.340;9.800;2023-09-19T16:01:10;1.52;;;0.30;;
9364;SDS011;4722;49.340;9.800;2023-09-19T16:03:36;1.27;;;0.40;;
9364;SDS011;4722;49.340;9.800;2023-09-19T16:06:12;2.75;;;0.38;;
9364;SDS011;4722;49.340;9.800;2023-09-19T16:08:44;0.20;;;0.20;;
9364;SDS011;4722;49.340;9.800;2023-09-19T16:11:11;2.80;;;0.35;;
9364;SDS011;4722;49.340;9.800;2023-09-19T16:13:38;1.05;;;0.20;;
9364;SDS011;4722;49.340;9.800;2023-09-19T16:16:04;1.85;;;0.47;;
9364;SDS011;4722;49.340;9.800;2023-09-19T16:18:30;0.60;;;0.20;;
9364;SDS011;4722;49.340;9.800;2023-09-19T16:21:02;1.58;;;0.45;;
9364;SDS011;4722;49.340;9.800;2023-09-19T16:23:28;1.38;;;0.35;;
9364;SDS011;4722;49.340;9.800;2023-09-19T16:26:09;1.02;;;0.30;;
9364;SDS011;4722;49.340;9.800;2023-09-19T16:28:35;0.85;;;0.50;;